createdAt,value
2023-03-03T00:00:48.987Z,101967.63
2023-03-03T00:03:19.295Z,101969.53
2023-03-03T00:05:45.799Z,101971.97
2023-03-03T00:08:12.719Z,101964.72
2023-03-03T00:10:40.136Z,101971.97
2023-03-03T00:13:15.223Z,101965.34
2023-03-03T00:15:41.776Z,101970.50
2023-03-03T00:18:18.919Z,101970.69
2023-03-03T00:21:01.004Z,101974.22
2023-03-03T00:23:39.522Z,101977.91
2023-03-03T00:26:34.049Z,101978.09
2023-03-03T00:29:01.915Z,101974.06
2023-03-03T00:31:36.339Z,101979.38
2023-03-03T00:34:18.379Z,101973.25
2023-03-03T00:36:44.964Z,101982.28
2023-03-03T00:39:31.503Z,101988.38
2023-03-03T00:41:59.726Z,101982.72
2023-03-03T00:44:38.312Z,101992.88
2023-03-03T00:47:31.844Z,101984.69
2023-03-03T00:50:29.878Z,101988.34
2023-03-03T00:53:35.749Z,101994.97
2023-03-03T00:56:02.275Z,101991.09
2023-03-03T00:58:29.462Z,101994.78
2023-03-03T01:00:59.056Z,101990.91
2023-03-03T01:03:26.423Z,101999.94
2023-03-03T01:05:54.367Z,101984.66
2023-03-03T01:08:39.187Z,101983.22
2023-03-03T01:11:26.681Z,102002.84
2023-03-03T01:13:53.449Z,101992.69
2023-03-03T01:16:20.428Z,101998.66
2023-03-03T01:18:46.953Z,101997.53
2023-03-03T01:21:13.712Z,101999.63
2023-03-03T01:23:40.251Z,101995.75
2023-03-03T01:26:07.031Z,101990.28
2023-03-03T01:28:34.192Z,101996.56
2023-03-03T01:31:02.710Z,101985.00
2023-03-03T01:33:29.729Z,101988.84
2023-03-03T01:36:34.533Z,101989.31
2023-03-03T01:39:01.248Z,101993.50
2023-03-03T01:41:33.879Z,101999.28
2023-03-03T01:44:00.502Z,101997.38
2023-03-03T01:46:44.998Z,101997.19
2023-03-03T01:49:19.311Z,101994.31
2023-03-03T01:51:51.830Z,101997.53
2023-03-03T01:54:25.215Z,101992.69
2023-03-03T01:56:57.780Z,101981.91
2023-03-03T01:59:29.348Z,101987.53
2023-03-03T02:01:56.011Z,101983.34
2023-03-03T02:04:22.976Z,101959.19
2023-03-03T02:06:58.067Z,101980.94
2023-03-03T02:09:43.819Z,101989.59
2023-03-03T02:12:13.773Z,101980.25
2023-03-03T02:14:40.222Z,101978.53
2023-03-03T02:17:06.905Z,101972.75
2023-03-03T02:19:50.118Z,101970.31
2023-03-03T02:22:21.894Z,101983.69
2023-03-03T02:24:53.347Z,101983.50
2023-03-03T02:27:19.861Z,101991.22
2023-03-03T02:29:46.386Z,101994.44
2023-03-03T02:32:12.984Z,101994.44
2023-03-03T02:34:50.773Z,101997.38
2023-03-03T02:37:18.245Z,101981.41
2023-03-03T02:39:45.071Z,101986.88
2023-03-03T02:42:17.525Z,101994.25
2023-03-03T02:44:44.061Z,101982.69
2023-03-03T02:47:10.582Z,101978.97
2023-03-03T02:49:37.468Z,101969.81
2023-03-03T02:52:07.142Z,101977.69
2023-03-03T02:54:33.644Z,101982.97
2023-03-03T02:57:01.099Z,101984.94
2023-03-03T02:59:28.355Z,101979.59
2023-03-03T03:01:55.116Z,101993.88
2023-03-03T03:04:23.866Z,101988.56
2023-03-03T03:06:51.322Z,101989.50
2023-03-03T03:09:19.356Z,101987.41
2023-03-03T03:11:45.947Z,101984.88
2023-03-03T03:14:13.674Z,101995.66
2023-03-03T03:16:40.914Z,101995.97
2023-03-03T03:19:08.254Z,101985.97
2023-03-03T03:21:35.112Z,101992.09
2023-03-03T03:24:44.277Z,101991.91
2023-03-03T03:27:10.753Z,101998.50
2023-03-03T03:30:30.755Z,101999.91
2023-03-03T03:32:57.254Z,102004.28
2023-03-03T03:35:23.716Z,102005.88
2023-03-03T03:37:50.204Z,102003.94
2023-03-03T03:40:16.741Z,102011.94
2023-03-03T03:42:49.318Z,102021.69
2023-03-03T03:45:15.893Z,102016.56
2023-03-03T03:47:42.689Z,102012.03
2023-03-03T03:50:10.151Z,102018.59
2023-03-03T03:52:36.823Z,102023.44
2023-03-03T03:55:04.152Z,102018.47
2023-03-03T03:57:30.710Z,102024.94
2023-03-03T03:59:57.520Z,102029.88
2023-03-03T04:02:24.081Z,102027.34
2023-03-03T04:04:50.627Z,102029.47
2023-03-03T04:07:17.161Z,102024.81
2023-03-03T04:09:43.612Z,102023.81
2023-03-03T04:12:10.046Z,102030.41
2023-03-03T04:14:36.613Z,102025.91
2023-03-03T04:17:03.085Z,102024.00
2023-03-03T04:19:29.554Z,102015.28
2023-03-03T04:21:56.025Z,102024.00
2023-03-03T04:24:22.533Z,102016.41
2023-03-03T04:26:48.983Z,102024.09
2023-03-03T04:29:15.427Z,102023.19
2023-03-03T04:31:41.942Z,102023.19
2023-03-03T04:34:08.481Z,102026.22
2023-03-03T04:36:34.914Z,102032.00
2023-03-03T04:39:01.341Z,102031.53
2023-03-03T04:41:27.770Z,102031.69
2023-03-03T04:43:54.260Z,102030.59
2023-03-03T04:46:20.726Z,102023.19
2023-03-03T04:48:47.264Z,102022.38
2023-03-03T04:51:14.923Z,102023.00
2023-03-03T04:53:41.373Z,102019.47
2023-03-03T04:56:08.194Z,102024.94
2023-03-03T04:58:34.738Z,102028.47
2023-03-03T05:01:01.271Z,102021.38
2023-03-03T05:03:27.943Z,102024.94
2023-03-03T05:05:54.530Z,102024.63
2023-03-03T05:08:21.097Z,102015.75
2023-03-03T05:10:51.824Z,102022.34
2023-03-03T05:13:18.390Z,102021.22
2023-03-03T05:15:52.747Z,102028.97
2023-03-03T05:18:19.921Z,102030.09
2023-03-03T05:21:02.324Z,102026.53
2023-03-03T05:23:29.060Z,102021.69
2023-03-03T05:25:55.554Z,102032.63
2023-03-03T05:28:22.352Z,102034.94
2023-03-03T05:30:49.123Z,102037.97
2023-03-03T05:33:18.837Z,102028.63
2023-03-03T05:36:03.720Z,102029.16
2023-03-03T05:38:30.184Z,102030.59
2023-03-03T05:40:56.767Z,102030.75
2023-03-03T05:43:23.229Z,102028.53
2023-03-03T05:45:55.639Z,102033.69
2023-03-03T05:48:30.927Z,102033.06
2023-03-03T05:51:00.804Z,102029.31
2023-03-03T05:56:25.542Z,102025.91
2023-03-03T05:59:03.721Z,102035.75
2023-03-03T06:01:30.459Z,102035.09
2023-03-03T06:04:15.023Z,102044.09
2023-03-03T06:06:41.598Z,102041.38
2023-03-03T06:09:08.126Z,102042.19
2023-03-03T06:11:34.596Z,102047.19
2023-03-03T06:14:01.075Z,102050.44
2023-03-03T06:16:27.571Z,102040.91
2023-03-03T06:18:54.079Z,102039.31
2023-03-03T06:21:20.532Z,102058.44
2023-03-03T06:23:47.012Z,102060.06
2023-03-03T06:26:13.506Z,102061.19
2023-03-03T06:28:39.941Z,102065.53
2023-03-03T06:31:06.380Z,102066.47
2023-03-03T06:33:32.797Z,102069.22
2023-03-03T06:35:59.532Z,102074.38
2023-03-03T06:38:26.029Z,102067.78
2023-03-03T06:40:52.581Z,102072.00
2023-03-03T06:43:19.055Z,102076.66
2023-03-03T06:49:17.758Z,102079.44
2023-03-03T06:51:46.229Z,102083.78
2023-03-03T06:54:30.601Z,102085.41
2023-03-03T06:57:05.589Z,102092.47
2023-03-03T06:59:32.084Z,102084.44
2023-03-03T07:01:58.582Z,102084.28
2023-03-03T07:04:31.103Z,102094.09
2023-03-03T07:07:00.277Z,102092.66
2023-03-03T07:09:30.125Z,102087.16
2023-03-03T07:12:19.058Z,102097.50
2023-03-03T07:14:55.412Z,102099.91
2023-03-03T07:17:24.790Z,102108.00
2023-03-03T07:19:51.678Z,102103.81
2023-03-03T07:22:25.269Z,102108.00
2023-03-03T07:24:57.090Z,102112.97
2023-03-03T07:27:30.664Z,102112.50
2023-03-03T07:30:27.497Z,102113.91
2023-03-03T07:32:58.690Z,102113.09
2023-03-03T07:35:40.985Z,102115.03
2023-03-03T07:38:25.015Z,102121.16
2023-03-03T07:40:55.260Z,102114.91
2023-03-03T07:43:38.076Z,102128.25
2023-03-03T07:46:10.617Z,102124.88
2023-03-03T07:48:42.569Z,102130.88
2023-03-03T07:51:20.012Z,102137.25
2023-03-03T07:53:47.441Z,102143.03
2023-03-03T07:56:20.662Z,102145.16
2023-03-03T07:58:47.484Z,102139.69
2023-03-03T08:01:28.893Z,102153.56
2023-03-03T08:03:56.500Z,102148.88
2023-03-03T08:06:32.722Z,102154.84
2023-03-03T08:09:18.745Z,102160.31
2023-03-03T08:12:14.493Z,102160.00
2023-03-03T08:14:40.956Z,102166.78
2023-03-03T08:17:17.794Z,102163.72
2023-03-03T08:19:44.259Z,102162.59
2023-03-03T08:22:16.264Z,102165.53
2023-03-03T08:24:42.824Z,102162.66
2023-03-03T08:27:09.381Z,102173.13
2023-03-03T08:29:35.931Z,102174.09
2023-03-03T08:32:02.601Z,102175.72
2023-03-03T08:34:29.143Z,102180.34
2023-03-03T08:36:58.148Z,102170.53
2023-03-03T08:39:24.701Z,102178.13
2023-03-03T08:41:51.269Z,102173.47
2023-03-03T08:44:17.790Z,102186.53
2023-03-03T08:46:44.469Z,102183.28
2023-03-03T08:49:10.994Z,102182.16
2023-03-03T08:51:37.560Z,102181.69
2023-03-03T08:54:04.116Z,102185.41
2023-03-03T08:56:30.568Z,102187.19
2023-03-03T08:59:02.560Z,102192.53
2023-03-03T09:01:31.018Z,102197.69
2023-03-03T09:03:57.589Z,102194.47
2023-03-03T09:06:24.138Z,102194.81
2023-03-03T09:08:50.961Z,102188.84
2023-03-03T09:11:24.252Z,102205.78
2023-03-03T09:13:53.287Z,102200.94
2023-03-03T09:16:22.215Z,102203.19
2023-03-03T09:18:48.783Z,102209.00
2023-03-03T09:21:28.940Z,102209.00
2023-03-03T09:24:01.711Z,102205.13
2023-03-03T09:26:29.618Z,102209.34
2023-03-03T09:29:14.310Z,102210.97
2023-03-03T09:31:45.468Z,102215.00
2023-03-03T09:34:37.165Z,102207.09
2023-03-03T09:37:28.631Z,102208.28
2023-03-03T09:39:57.442Z,102210.69
2023-03-03T09:42:29.688Z,102209.06
2023-03-03T09:45:17.960Z,102214.09
2023-03-03T09:48:18.168Z,102217.00
2023-03-03T09:51:03.401Z,102217.19
2023-03-03T09:53:51.665Z,102216.25
2023-03-03T09:56:23.976Z,102219.78
2023-03-03T09:59:42.322Z,102227.06
2023-03-03T10:02:36.082Z,102224.50
2023-03-03T10:05:14.312Z,102226.47
2023-03-03T10:07:46.933Z,102233.41
2023-03-03T10:10:35.204Z,102235.84
2023-03-03T10:13:19.385Z,102231.66
2023-03-03T10:16:17.561Z,102232.63
2023-03-03T10:19:01.031Z,102232.13
2023-03-03T10:21:39.679Z,102236.19
2023-03-03T10:24:38.131Z,102244.72
2023-03-03T10:27:36.716Z,102238.91
2023-03-03T10:30:41.250Z,102253.69
2023-03-03T10:33:26.374Z,102253.38
2023-03-03T10:36:30.888Z,102250.97
2023-03-03T10:39:34.825Z,102251.16
2023-03-03T10:42:16.618Z,102249.22
2023-03-03T10:44:58.879Z,102249.06
2023-03-03T10:47:47.011Z,102256.81
2023-03-03T10:50:55.792Z,102253.44
2023-03-03T10:53:31.693Z,102244.75
2023-03-03T10:56:01.166Z,102248.78
2023-03-03T10:58:30.607Z,102250.22
2023-03-03T11:01:45.311Z,102244.25
2023-03-03T11:04:33.690Z,102246.53
2023-03-03T11:07:47.739Z,102246.88
2023-03-03T11:10:35.719Z,102248.97
2023-03-03T11:13:32.350Z,102236.38
2023-03-03T11:16:34.499Z,102243.16
2023-03-03T11:19:11.356Z,102245.09
2023-03-03T11:21:46.785Z,102238.66
2023-03-03T11:24:19.242Z,102246.72
2023-03-03T11:26:51.767Z,102240.25
2023-03-03T11:29:21.300Z,102238.00
2023-03-03T11:31:57.628Z,102225.72
2023-03-03T11:34:47.200Z,102235.91
2023-03-03T11:38:09.474Z,102227.50
2023-03-03T11:40:49.318Z,102231.38
2023-03-03T11:43:36.230Z,102231.22
2023-03-03T11:46:11.526Z,102228.78
2023-03-03T11:49:00.763Z,102233.81
2023-03-03T11:51:48.732Z,102223.59
2023-03-03T11:54:28.959Z,102221.19
2023-03-03T11:57:12.006Z,102217.16
2023-03-03T11:59:47.264Z,102212.47
2023-03-03T12:02:16.606Z,102218.91
2023-03-03T12:04:54.292Z,102216.31
2023-03-03T12:07:57.686Z,102208.16
2023-03-03T12:10:31.049Z,102205.25
2023-03-03T12:13:16.391Z,102198.25
2023-03-03T12:16:25.359Z,102208.09
2023-03-03T12:19:18.109Z,102206.47
2023-03-03T12:21:56.665Z,102201.78
2023-03-03T12:24:23.093Z,102193.22
2023-03-03T12:27:02.120Z,102190.53
2023-03-03T12:29:41.418Z,102196.94
2023-03-03T12:32:30.598Z,102198.69
2023-03-03T12:35:41.922Z,102190.72
2023-03-03T12:38:28.588Z,102190.41
2023-03-03T12:41:08.650Z,102188.81
2023-03-03T12:44:00.142Z,102184.16
2023-03-03T12:46:29.948Z,102180.94
2023-03-03T12:48:56.698Z,102184.34
2023-03-03T12:51:41.285Z,102182.97
2023-03-03T12:54:26.561Z,102179.16
2023-03-03T12:57:03.698Z,102186.91
2023-03-03T13:00:11.698Z,102191.81
2023-03-03T13:02:58.584Z,102185.25
2023-03-03T13:05:45.777Z,102182.97
2023-03-03T13:08:23.748Z,102187.41
2023-03-03T13:11:00.363Z,102184.00
2023-03-03T13:13:29.739Z,102175.75
2023-03-03T13:16:06.543Z,102177.75
2023-03-03T13:18:49.292Z,102184.53
2023-03-03T13:21:34.968Z,102179.03
2023-03-03T13:24:32.746Z,102174.47
2023-03-03T13:27:07.361Z,102177.59
2023-03-03T13:29:36.441Z,102172.88
2023-03-03T13:32:17.436Z,102170.22
2023-03-03T13:34:58.760Z,102167.94
2023-03-03T13:37:46.822Z,102177.44
2023-03-03T13:40:13.395Z,102172.94
2023-03-03T13:42:45.501Z,102176.25
2023-03-03T13:45:31.130Z,102172.75
2023-03-03T13:48:00.783Z,102171.59
2023-03-03T13:50:36.760Z,102159.97
2023-03-03T13:53:38.635Z,102161.53
2023-03-03T13:56:13.860Z,102150.84
2023-03-03T13:59:04.494Z,102151.44
2023-03-03T14:01:34.008Z,102146.56
2023-03-03T14:04:03.600Z,102142.06
2023-03-03T14:06:30.399Z,102137.69
2023-03-03T14:09:04.673Z,102141.78
2023-03-03T14:11:43.078Z,102144.75
2023-03-03T14:14:28.480Z,102137.13
2023-03-03T14:17:04.244Z,102135.81
2023-03-03T14:19:54.247Z,102121.03
2023-03-03T14:22:46.863Z,102118.31
2023-03-03T14:25:15.673Z,102121.03
2023-03-03T14:27:48.350Z,102114.19
2023-03-03T14:30:43.876Z,102108.75
2023-03-03T14:33:10.321Z,102115.66
2023-03-03T14:35:56.602Z,102111.56
2023-03-03T14:38:45.073Z,102111.34
2023-03-03T14:41:11.881Z,102102.50
2023-03-03T14:43:39.394Z,102102.91
2023-03-03T14:46:27.393Z,102110.97
2023-03-03T14:48:56.596Z,102107.78
2023-03-03T14:51:27.171Z,102102.47
2023-03-03T14:53:53.881Z,102093.91
2023-03-03T14:56:30.752Z,102092.41
2023-03-03T14:59:18.254Z,102095.34
2023-03-03T15:01:45.110Z,102089.88
2023-03-03T15:04:14.421Z,102082.78
2023-03-03T15:06:43.741Z,102087.56
2023-03-03T15:09:30.444Z,102083.94
2023-03-03T15:11:58.721Z,102077.22
2023-03-03T15:14:45.769Z,102074.41
2023-03-03T15:17:38.101Z,102071.66
2023-03-03T15:20:22.677Z,102071.56
2023-03-03T15:23:19.556Z,102064.38
2023-03-03T15:25:58.936Z,102069.13
2023-03-03T15:28:56.023Z,102068.28
2023-03-03T15:31:30.262Z,102060.44
2023-03-03T15:34:28.032Z,102052.72
2023-03-03T15:37:13.243Z,102059.34
2023-03-03T15:40:13.436Z,102055.47
2023-03-03T15:42:46.609Z,102042.16
2023-03-03T15:45:29.305Z,102046.44
2023-03-03T15:48:07.640Z,102045.38
2023-03-03T15:50:47.074Z,102046.41
2023-03-03T15:53:37.765Z,102042.13
2023-03-03T15:56:16.327Z,102053.97
2023-03-03T15:59:04.434Z,102045.78
2023-03-03T16:01:34.611Z,102039.22
2023-03-03T16:04:09.596Z,102051.66
2023-03-03T16:07:22.200Z,102038.50
2023-03-03T16:09:57.744Z,102040.06
2023-03-03T16:12:47.874Z,102046.50
2023-03-03T16:15:17.507Z,102047.84
2023-03-03T16:18:08.780Z,102044.75
2023-03-03T16:20:40.359Z,102040.78
2023-03-03T16:23:31.210Z,102046.50
2023-03-03T16:26:35.539Z,102041.34
2023-03-03T16:29:20.020Z,102043.94
2023-03-03T16:32:12.692Z,102028.88
2023-03-03T16:34:58.878Z,102047.50
2023-03-03T16:37:36.158Z,102042.22
2023-03-03T16:40:23.747Z,102041.25
2023-03-03T16:42:59.204Z,102044.59
2023-03-03T16:45:31.086Z,102042.94
2023-03-03T16:47:57.543Z,102044.25
2023-03-03T16:50:48.917Z,102041.66
2023-03-03T16:53:18.325Z,102052.13
2023-03-03T16:56:08.268Z,102056.75
2023-03-03T16:58:41.749Z,102045.88
2023-03-03T17:01:11.337Z,102056.09
2023-03-03T17:03:50.774Z,102058.56
2023-03-03T17:06:35.741Z,102058.81
2023-03-03T17:09:31.535Z,102058.13
2023-03-03T17:12:23.272Z,102063.84
2023-03-03T17:14:55.897Z,102068.78
2023-03-03T17:17:33.903Z,102063.72
2023-03-03T17:20:22.161Z,102068.66
2023-03-03T17:23:08.821Z,102074.63
2023-03-03T17:25:39.453Z,102070.72
2023-03-03T17:28:15.003Z,102071.16
2023-03-03T17:30:56.361Z,102081.25
2023-03-03T17:33:51.363Z,102077.75
2023-03-03T17:36:28.862Z,102084.50
2023-03-03T17:38:57.992Z,102080.69
2023-03-03T17:42:01.973Z,102088.59
2023-03-03T17:44:39.420Z,102092.88
2023-03-03T17:47:10.073Z,102092.59
2023-03-03T17:49:51.424Z,102093.16
2023-03-03T17:52:36.714Z,102091.75
2023-03-03T17:55:40.820Z,102098.56
2023-03-03T17:58:34.449Z,102095.56
2023-03-03T18:01:17.674Z,102092.88
2023-03-03T18:03:56.241Z,102101.94
2023-03-03T18:06:55.808Z,102101.78
2023-03-03T18:09:48.126Z,102104.88
2023-03-03T18:12:36.912Z,102104.88
2023-03-03T18:15:17.176Z,102105.84
2023-03-03T18:18:01.747Z,102109.03
2023-03-03T18:21:01.852Z,102103.00
2023-03-03T18:23:28.239Z,102106.00
2023-03-03T18:26:00.610Z,102113.25
2023-03-03T18:29:27.068Z,102120.84
2023-03-03T18:31:53.655Z,102114.69
2023-03-03T18:34:20.154Z,102114.34
2023-03-03T18:37:19.104Z,102115.63
2023-03-03T18:40:09.544Z,102108.84
2023-03-03T18:42:40.788Z,102114.28
2023-03-03T18:45:20.088Z,102130.25
2023-03-03T18:48:09.567Z,102123.53
2023-03-03T18:50:42.198Z,102126.47
2023-03-03T18:53:14.578Z,102129.41
2023-03-03T18:55:44.713Z,102131.03
2023-03-03T18:58:14.150Z,102137.94
2023-03-03T19:00:50.009Z,102140.97
2023-03-03T19:03:54.745Z,102134.91
2023-03-03T19:06:32.484Z,102134.59
2023-03-03T19:08:59.450Z,102143.78
2023-03-03T19:11:51.767Z,102144.25
2023-03-03T19:14:39.718Z,102146.22
2023-03-03T19:17:18.337Z,102143.97
2023-03-03T19:20:12.807Z,102144.19
2023-03-03T19:22:46.746Z,102138.38
2023-03-03T19:25:18.394Z,102142.84
2023-03-03T19:27:59.967Z,102142.09
2023-03-03T19:31:05.114Z,102143.88
2023-03-03T19:33:46.860Z,102130.06
2023-03-03T19:36:32.009Z,102132.59
2023-03-03T19:39:01.513Z,102136.13
2023-03-03T19:41:56.196Z,102133.78
2023-03-03T19:44:53.359Z,102122.31
2023-03-03T19:47:33.531Z,102120.63
2023-03-03T19:50:12.028Z,102135.16
2023-03-03T19:52:45.784Z,102128.22
2023-03-03T19:55:33.240Z,102136.91
2023-03-03T19:58:09.147Z,102130.47
2023-03-03T20:00:43.632Z,102125.31
2023-03-03T20:03:28.668Z,102130.75
2023-03-03T20:06:30.030Z,102136.25
2023-03-03T20:09:26.823Z,102129.53
2023-03-03T20:12:05.699Z,102130.06
2023-03-03T20:14:45.430Z,102127.78
2023-03-03T20:17:21.405Z,102124.41
2023-03-03T20:20:13.176Z,102129.38
2023-03-03T20:23:02.380Z,102137.81
2023-03-03T20:25:35.754Z,102136.00
2023-03-03T20:28:27.077Z,102134.88
2023-03-03T20:31:25.844Z,102133.09
2023-03-03T20:34:01.213Z,102140.13
2023-03-03T20:36:32.211Z,102143.22
2023-03-03T20:39:01.398Z,102134.44
2023-03-03T20:41:27.847Z,102147.66
2023-03-03T20:44:26.307Z,102144.44
2023-03-03T20:47:11.542Z,102148.00
2023-03-03T20:49:40.874Z,102144.50
2023-03-03T20:52:16.313Z,102142.56
2023-03-03T20:54:57.225Z,102141.00
2023-03-03T20:57:42.108Z,102136.91
2023-03-03T21:00:21.163Z,102144.16
2023-03-03T21:02:50.750Z,102143.97
2023-03-03T21:05:22.550Z,102146.19
2023-03-03T21:07:56.533Z,102144.72
2023-03-03T21:10:26.509Z,102133.03
2023-03-03T21:12:58.749Z,102149.03
2023-03-03T21:15:35.595Z,102145.66
2023-03-03T21:18:20.978Z,102149.16
2023-03-03T21:20:47.537Z,102144.38
2023-03-03T21:23:14.508Z,102137.53
2023-03-03T21:25:41.117Z,102138.94
2023-03-03T21:28:21.163Z,102135.03
2023-03-03T21:31:00.658Z,102143.97
2023-03-03T21:33:42.148Z,102139.28
2023-03-03T21:36:14.783Z,102138.94
2023-03-03T21:38:41.363Z,102130.69
2023-03-03T21:41:08.632Z,102138.28
2023-03-03T21:43:37.505Z,102133.22
2023-03-03T21:46:04.233Z,102138.53
2023-03-03T21:48:30.783Z,102129.78
2023-03-03T21:50:57.307Z,102130.72
2023-03-03T21:53:24.168Z,102130.88
2023-03-03T21:55:51.084Z,102135.69
2023-03-03T21:58:17.564Z,102130.97
2023-03-03T22:00:44.540Z,102135.22
2023-03-03T22:03:12.184Z,102141.06
2023-03-03T22:05:38.678Z,102139.94
2023-03-03T22:08:05.363Z,102139.22
2023-03-03T22:10:32.128Z,102142.94
2023-03-03T22:12:58.563Z,102142.13
2023-03-03T22:15:25.189Z,102142.22
2023-03-03T22:17:51.698Z,102150.16
2023-03-03T22:20:18.275Z,102141.78
2023-03-03T22:22:44.829Z,102139.03
2023-03-03T22:25:11.379Z,102137.88
2023-03-03T22:27:37.837Z,102143.19
2023-03-03T22:30:04.773Z,102134.34
2023-03-03T22:32:31.239Z,102140.63
2023-03-03T22:34:57.723Z,102135.28
2023-03-03T22:37:24.189Z,102139.22
2023-03-03T22:39:50.662Z,102136.72
2023-03-03T22:42:17.135Z,102125.03
2023-03-03T22:44:45.815Z,102146.47
2023-03-03T22:47:12.472Z,102136.03
2023-03-03T22:49:38.947Z,102143.47
2023-03-03T22:52:05.505Z,102135.56
2023-03-03T22:54:32.014Z,102133.28
2023-03-03T22:56:58.468Z,102133.63
2023-03-03T22:59:24.915Z,102129.59
2023-03-03T23:01:51.362Z,102140.13
2023-03-03T23:04:20.091Z,102135.88
2023-03-03T23:06:46.596Z,102136.38
2023-03-03T23:09:13.136Z,102129.59
2023-03-03T23:11:39.599Z,102133.94
2023-03-03T23:14:06.152Z,102133.13
2023-03-03T23:16:32.702Z,102132.34
2023-03-03T23:18:59.218Z,102133.47
2023-03-03T23:21:25.694Z,102137.03
2023-03-03T23:23:52.225Z,102133.03
2023-03-03T23:26:18.704Z,102130.63
2023-03-03T23:28:45.144Z,102130.28
2023-03-03T23:31:11.622Z,102131.75
2023-03-03T23:33:38.068Z,102133.03
2023-03-03T23:36:04.857Z,102128.31
2023-03-03T23:38:31.351Z,102140.13
2023-03-03T23:40:57.811Z,102133.34
2023-03-03T23:43:24.333Z,102135.97
2023-03-03T23:45:50.852Z,102132.28
2023-03-03T23:48:17.314Z,102124.03
2023-03-03T23:50:43.797Z,102128.06
2023-03-03T23:53:10.255Z,102124.84
2023-03-03T23:55:37.663Z,102122.53
2023-03-03T23:58:05.317Z,102132.09
